createdAt,value
2023-02-27T00:00:15.262Z,92.12
2023-02-27T00:03:04.007Z,91.38
2023-02-27T00:05:32.696Z,91.40
2023-02-27T00:08:01.279Z,91.30
2023-02-27T00:10:29.877Z,91.18
2023-02-27T00:12:58.576Z,91.44
2023-02-27T00:15:27.244Z,90.77
2023-02-27T00:17:56.755Z,91.20
2023-02-27T00:20:26.442Z,90.78
2023-02-27T00:22:55.075Z,90.76
2023-02-27T00:25:23.610Z,90.88
2023-02-27T00:27:54.376Z,90.50
2023-02-27T00:30:22.942Z,90.67
2023-02-27T00:32:51.747Z,90.74
2023-02-27T00:35:21.137Z,90.57
2023-02-27T00:37:50.253Z,90.10
2023-02-27T00:40:19.953Z,90.39
2023-02-27T00:42:49.953Z,89.95
2023-02-27T00:45:20.188Z,90.06
2023-02-27T00:47:49.583Z,90.09
2023-02-27T00:50:18.762Z,90.16
2023-02-27T00:52:47.484Z,89.54
2023-02-27T00:55:16.437Z,89.97
2023-02-27T00:57:45.078Z,90.54
2023-02-27T01:00:15.292Z,90.12
2023-02-27T01:02:43.873Z,90.13
2023-02-27T01:05:13.235Z,89.71
2023-02-27T01:07:41.934Z,89.60
2023-02-27T01:10:12.594Z,89.31
2023-02-27T01:12:41.788Z,89.38
2023-02-27T01:15:12.640Z,89.12
2023-02-27T01:17:41.277Z,88.78
2023-02-27T01:20:12.740Z,88.81
2023-02-27T01:22:42.240Z,89.02
2023-02-27T01:25:11.184Z,88.94
2023-02-27T01:27:41.230Z,89.11
2023-02-27T01:30:11.869Z,89.02
2023-02-27T01:32:40.584Z,89.30
2023-02-27T01:35:09.857Z,89.03
2023-02-27T01:37:38.321Z,88.82
2023-02-27T01:40:08.686Z,88.99
2023-02-27T01:42:37.381Z,88.98
2023-02-27T01:45:12.578Z,88.71
2023-02-27T01:47:44.750Z,89.19
2023-02-27T01:50:15.137Z,89.31
2023-02-27T01:52:45.014Z,89.29
2023-02-27T01:55:15.019Z,88.90
2023-02-27T01:57:46.876Z,89.02
2023-02-27T02:00:17.624Z,89.20
2023-02-27T02:03:21.595Z,88.91
2023-02-27T02:05:54.996Z,88.60
2023-02-27T02:08:24.319Z,88.83
2023-02-27T02:10:54.322Z,88.51
2023-02-27T02:13:23.101Z,88.51
2023-02-27T02:16:25.083Z,88.78
2023-02-27T02:19:20.268Z,88.79
2023-02-27T02:21:54.582Z,88.56
2023-02-27T02:24:29.000Z,88.68
2023-02-27T02:27:11.215Z,88.77
2023-02-27T02:30:03.456Z,88.04
2023-02-27T02:32:34.994Z,88.10
2023-02-27T02:35:06.781Z,88.52
2023-02-27T02:38:00.538Z,88.21
2023-02-27T02:40:47.022Z,87.56
2023-02-27T02:43:25.644Z,87.90
2023-02-27T02:46:23.599Z,88.07
2023-02-27T02:49:01.950Z,88.21
2023-02-27T02:51:40.973Z,88.42
2023-02-27T02:54:30.614Z,88.32
2023-02-27T02:57:09.354Z,87.91
2023-02-27T02:59:54.334Z,88.25
2023-02-27T03:02:26.831Z,88.75
2023-02-27T03:05:00.718Z,89.49
2023-02-27T03:07:33.886Z,89.44
2023-02-27T03:10:17.879Z,89.55
2023-02-27T03:12:52.384Z,89.51
2023-02-27T03:15:26.293Z,89.65
2023-02-27T03:18:06.220Z,89.99
2023-02-27T03:20:41.865Z,89.84
2023-02-27T03:23:15.826Z,89.75
2023-02-27T03:25:46.636Z,89.67
2023-02-27T03:28:19.278Z,90.00
2023-02-27T03:30:51.966Z,89.47
2023-02-27T03:33:33.832Z,89.87
2023-02-27T03:36:27.788Z,89.17
2023-02-27T03:39:27.475Z,89.51
2023-02-27T03:42:07.711Z,89.28
2023-02-27T03:45:00.153Z,89.33
2023-02-27T03:47:29.669Z,89.11
2023-02-27T03:49:58.637Z,89.40
2023-02-27T03:52:28.785Z,88.80
2023-02-27T03:55:01.950Z,88.71
2023-02-27T03:57:31.667Z,89.09
2023-02-27T04:00:00.778Z,89.29
2023-02-27T04:02:30.558Z,89.68
2023-02-27T04:04:59.275Z,89.42
2023-02-27T04:08:19.345Z,89.13
2023-02-27T04:11:04.107Z,88.91
2023-02-27T04:13:38.473Z,89.00
2023-02-27T04:16:35.468Z,88.90
2023-02-27T04:19:25.980Z,89.33
2023-02-27T04:22:11.546Z,89.10
2023-02-27T04:24:58.764Z,89.03
2023-02-27T04:27:36.439Z,88.98
2023-02-27T04:30:29.920Z,88.89
2023-02-27T04:33:07.779Z,88.95
2023-02-27T04:35:44.026Z,89.07
2023-02-27T04:38:28.575Z,89.08
2023-02-27T04:41:04.642Z,89.35
2023-02-27T04:43:35.019Z,89.36
2023-02-27T04:46:05.482Z,89.24
2023-02-27T04:48:38.089Z,89.22
2023-02-27T04:51:11.504Z,89.75
2023-02-27T04:53:57.565Z,89.52
2023-02-27T04:56:38.238Z,89.56
2023-02-27T04:59:15.641Z,89.91
2023-02-27T05:01:48.675Z,89.71
2023-02-27T05:04:20.483Z,90.17
2023-02-27T05:06:50.238Z,89.90
2023-02-27T05:09:40.442Z,89.78
2023-02-27T05:12:26.554Z,90.30
2023-02-27T05:15:37.059Z,90.08
2023-02-27T05:18:09.474Z,90.24
2023-02-27T05:21:37.552Z,90.37
2023-02-27T05:24:12.169Z,90.53
2023-02-27T05:27:27.972Z,90.61
2023-02-27T05:30:15.888Z,90.61
2023-02-27T05:33:05.271Z,90.87
2023-02-27T05:35:56.726Z,91.13
2023-02-27T05:38:34.270Z,90.97
2023-02-27T05:41:14.693Z,90.93
2023-02-27T05:43:47.677Z,91.36
2023-02-27T05:46:22.894Z,91.24
2023-02-27T05:48:55.450Z,91.23
2023-02-27T05:51:26.282Z,91.15
2023-02-27T05:54:02.452Z,91.15
2023-02-27T05:56:34.188Z,90.95
2023-02-27T05:59:24.730Z,91.37
2023-02-27T06:01:53.405Z,91.23
2023-02-27T06:04:22.188Z,91.59
2023-02-27T06:06:51.050Z,91.53
2023-02-27T06:09:20.972Z,91.65
2023-02-27T06:11:49.441Z,91.93
2023-02-27T06:14:18.033Z,91.60
2023-02-27T06:16:46.933Z,92.29
2023-02-27T06:19:15.715Z,91.78
2023-02-27T06:21:44.398Z,91.91
2023-02-27T06:24:13.290Z,92.09
2023-02-27T06:26:41.858Z,92.24
2023-02-27T06:29:10.752Z,92.08
2023-02-27T06:31:39.438Z,92.26
2023-02-27T06:34:08.429Z,91.89
2023-02-27T06:36:37.312Z,92.24
2023-02-27T06:39:06.630Z,92.22
2023-02-27T06:41:35.211Z,91.71
2023-02-27T06:44:03.991Z,92.08
2023-02-27T06:46:32.631Z,92.16
2023-02-27T06:49:01.359Z,91.94
2023-02-27T06:51:30.050Z,92.15
2023-02-27T06:53:58.624Z,91.88
2023-02-27T06:56:27.500Z,91.70
2023-02-27T06:58:57.609Z,91.93
2023-02-27T07:01:28.105Z,91.96
2023-02-27T07:03:57.155Z,91.69
2023-02-27T07:07:30.974Z,91.77
2023-02-27T07:09:14.284Z,91.38
2023-02-27T07:11:42.871Z,91.38
2023-02-27T07:14:12.781Z,91.40
2023-02-27T07:16:42.592Z,91.26
2023-02-27T07:19:11.283Z,91.15
2023-02-27T07:21:40.490Z,90.78
2023-02-27T07:24:09.773Z,90.85
2023-02-27T07:26:38.364Z,90.41
2023-02-27T07:29:07.464Z,90.58
2023-02-27T07:31:36.690Z,91.06
2023-02-27T07:34:05.245Z,90.55
2023-02-27T07:36:34.632Z,90.80
2023-02-27T07:39:04.048Z,90.64
2023-02-27T07:41:33.750Z,90.57
2023-02-27T07:44:02.547Z,90.27
2023-02-27T07:46:31.435Z,90.35
2023-02-27T07:49:00.439Z,90.24
2023-02-27T07:51:29.823Z,90.33
2023-02-27T07:53:58.928Z,89.92
2023-02-27T07:56:27.989Z,90.20
2023-02-27T07:58:57.230Z,89.76
2023-02-27T08:01:26.320Z,89.71
2023-02-27T08:03:56.724Z,89.92
2023-02-27T08:06:25.758Z,89.32
2023-02-27T08:08:54.777Z,89.08
2023-02-27T08:11:23.709Z,88.68
2023-02-27T08:14:01.305Z,88.69
2023-02-27T08:16:32.101Z,88.31
2023-02-27T08:19:01.486Z,88.43
2023-02-27T08:21:31.049Z,88.97
2023-02-27T08:23:59.942Z,89.00
2023-02-27T08:26:29.094Z,88.30
2023-02-27T08:28:58.019Z,88.43
2023-02-27T08:31:26.838Z,87.91
2023-02-27T08:34:04.476Z,88.11
2023-02-27T08:36:38.734Z,88.19
2023-02-27T08:39:08.330Z,87.82
2023-02-27T08:41:37.026Z,87.26
2023-02-27T08:44:06.205Z,86.76
2023-02-27T08:46:34.909Z,86.98
2023-02-27T08:49:03.788Z,86.70
2023-02-27T08:51:32.572Z,86.79
2023-02-27T08:54:01.780Z,87.08
2023-02-27T08:56:30.763Z,87.23
2023-02-27T08:58:59.378Z,86.89
2023-02-27T09:01:33.460Z,86.89
2023-02-27T09:04:03.877Z,86.87
2023-02-27T09:06:34.388Z,87.25
2023-02-27T09:09:04.240Z,87.33
2023-02-27T09:11:33.327Z,87.35
2023-02-27T09:14:01.799Z,86.80
2023-02-27T09:16:30.973Z,86.90
2023-02-27T09:18:59.889Z,86.27
2023-02-27T09:21:30.224Z,85.34
2023-02-27T09:24:02.533Z,85.04
2023-02-27T09:26:45.166Z,85.21
2023-02-27T09:29:15.218Z,85.66
2023-02-27T09:31:44.025Z,85.72
2023-02-27T09:34:12.885Z,84.94
2023-02-27T09:36:42.312Z,84.90
2023-02-27T09:39:11.285Z,84.66
2023-02-27T09:41:57.286Z,84.55
2023-02-27T09:44:46.970Z,84.32
2023-02-27T09:47:22.120Z,83.83
2023-02-27T09:50:02.457Z,83.32
2023-02-27T09:52:33.177Z,83.15
2023-02-27T09:55:02.295Z,82.58
2023-02-27T09:57:55.226Z,81.64
2023-02-27T10:00:41.258Z,80.33
2023-02-27T10:03:23.264Z,80.64
2023-02-27T10:06:01.033Z,80.93
2023-02-27T10:08:29.706Z,80.73
2023-02-27T10:11:08.207Z,81.13
2023-02-27T10:13:58.201Z,80.03
2023-02-27T10:16:29.236Z,81.14
2023-02-27T10:19:01.883Z,82.14
2023-02-27T10:21:49.457Z,81.37
2023-02-27T10:24:37.902Z,81.47
2023-02-27T10:27:08.732Z,80.57
2023-02-27T10:29:42.034Z,79.89
2023-02-27T10:32:22.960Z,79.68
2023-02-27T10:34:59.594Z,79.80
2023-02-27T10:37:28.752Z,78.78
2023-02-27T10:40:00.302Z,78.40
2023-02-27T10:42:33.845Z,77.97
2023-02-27T10:45:04.146Z,76.75
2023-02-27T10:47:33.146Z,76.78
2023-02-27T10:50:01.866Z,75.80
2023-02-27T10:52:31.627Z,75.14
2023-02-27T10:55:18.435Z,74.78
2023-02-27T10:57:47.128Z,74.74
2023-02-27T11:00:33.831Z,75.24
2023-02-27T11:03:02.725Z,74.30
2023-02-27T11:05:36.544Z,74.83
2023-02-27T11:08:22.941Z,73.44
2023-02-27T11:11:11.586Z,73.34
2023-02-27T11:13:42.683Z,71.91
2023-02-27T11:16:17.280Z,71.17
2023-02-27T11:18:47.961Z,71.88
2023-02-27T11:21:29.282Z,71.21
2023-02-27T11:24:01.226Z,70.71
2023-02-27T11:26:33.741Z,69.55
2023-02-27T11:29:15.493Z,69.28
2023-02-27T11:32:06.619Z,69.84
2023-02-27T11:34:38.537Z,69.97
2023-02-27T11:37:33.502Z,70.11
2023-02-27T11:40:13.432Z,71.74
2023-02-27T11:42:50.807Z,69.45
2023-02-27T11:46:13.869Z,64.00
2023-02-27T11:48:39.998Z,64.23
2023-02-27T11:51:37.106Z,65.04
2023-02-27T11:54:38.493Z,65.92
2023-02-27T11:57:30.277Z,63.93
2023-02-27T12:00:21.836Z,64.22
2023-02-27T12:02:59.638Z,65.16
2023-02-27T12:05:50.093Z,65.64
2023-02-27T12:08:30.198Z,65.63
2023-02-27T12:11:13.594Z,65.94
2023-02-27T12:13:47.554Z,65.20
2023-02-27T12:16:42.712Z,66.07
2023-02-27T12:19:32.284Z,66.32
2023-02-27T12:22:06.885Z,64.98
2023-02-27T12:25:07.293Z,65.58
2023-02-27T12:27:44.446Z,63.67
2023-02-27T12:30:22.984Z,63.83
2023-02-27T12:33:01.592Z,64.90
2023-02-27T12:35:33.436Z,63.98
2023-02-27T12:38:02.561Z,64.11
2023-02-27T12:40:34.185Z,65.21
2023-02-27T12:43:32.472Z,66.31
2023-02-27T12:46:32.273Z,68.30
2023-02-27T12:49:37.253Z,67.77
2023-02-27T12:52:07.332Z,68.58
2023-02-27T12:54:54.763Z,68.72
2023-02-27T12:57:57.646Z,69.23
2023-02-27T13:00:30.034Z,69.27
2023-02-27T13:03:06.074Z,67.98
2023-02-27T13:05:53.490Z,68.74
2023-02-27T13:08:52.939Z,69.68
2023-02-27T13:11:46.796Z,69.90
2023-02-27T13:14:27.556Z,70.96
2023-02-27T13:17:13.546Z,70.61
2023-02-27T13:19:53.404Z,71.44
2023-02-27T13:22:53.624Z,72.80
2023-02-27T13:25:24.067Z,73.93
2023-02-27T13:28:00.622Z,73.11
2023-02-27T13:30:29.203Z,71.60
2023-02-27T13:33:07.007Z,69.99
2023-02-27T13:35:57.219Z,69.05
2023-02-27T13:38:45.234Z,67.92
2023-02-27T13:41:29.373Z,67.84
2023-02-27T13:44:00.307Z,67.28
2023-02-27T13:46:34.050Z,67.61
2023-02-27T13:49:06.651Z,67.09
2023-02-27T13:51:35.922Z,67.09
2023-02-27T13:54:14.239Z,66.94
2023-02-27T13:56:58.742Z,66.63
2023-02-27T13:59:45.190Z,66.19
2023-02-27T14:02:56.778Z,66.42
2023-02-27T14:05:36.539Z,66.59
2023-02-27T14:08:19.426Z,67.91
2023-02-27T14:11:13.492Z,67.61
2023-02-27T14:13:52.312Z,67.81
2023-02-27T14:16:50.517Z,68.34
2023-02-27T14:19:21.599Z,68.72
2023-02-27T14:22:19.911Z,69.06
2023-02-27T14:25:02.420Z,69.08
2023-02-27T14:27:49.447Z,69.43
2023-02-27T14:30:31.653Z,70.23
2023-02-27T14:33:11.208Z,70.91
2023-02-27T14:35:40.111Z,71.46
2023-02-27T14:38:11.014Z,71.61
2023-02-27T14:41:01.302Z,71.97
2023-02-27T14:43:44.069Z,72.83
2023-02-27T14:46:27.579Z,73.07
2023-02-27T14:49:08.827Z,73.78
2023-02-27T14:51:38.131Z,74.12
2023-02-27T14:54:12.674Z,73.92
2023-02-27T14:56:54.462Z,73.78
2023-02-27T14:59:25.754Z,73.40
2023-02-27T15:01:56.559Z,73.43
2023-02-27T15:04:29.078Z,72.96
2023-02-27T15:06:59.077Z,73.13
2023-02-27T15:09:43.326Z,72.54
2023-02-27T15:12:20.885Z,70.99
2023-02-27T15:14:55.961Z,71.50
2023-02-27T15:17:27.657Z,72.01
2023-02-27T15:19:58.935Z,72.63
2023-02-27T15:22:38.905Z,72.95
2023-02-27T15:25:32.169Z,72.44
2023-02-27T15:28:08.482Z,71.61
2023-02-27T15:30:37.264Z,72.42
2023-02-27T15:33:13.633Z,72.86
2023-02-27T15:35:44.313Z,72.96
2023-02-27T15:38:33.949Z,73.77
2023-02-27T15:41:03.863Z,73.70
2023-02-27T15:43:34.229Z,73.92
2023-02-27T15:46:02.973Z,74.25
2023-02-27T15:48:32.573Z,74.16
2023-02-27T15:51:03.833Z,73.91
2023-02-27T15:53:34.390Z,72.92
2023-02-27T15:56:06.990Z,72.51
2023-02-27T15:58:38.945Z,72.85
2023-02-27T16:01:13.859Z,72.89
2023-02-27T16:03:52.320Z,72.74
2023-02-27T16:06:29.912Z,72.99
2023-02-27T16:09:29.026Z,73.37
2023-02-27T16:12:28.251Z,73.53
2023-02-27T16:15:28.072Z,74.01
2023-02-27T16:18:07.319Z,74.52
2023-02-27T16:21:01.842Z,74.57
2023-02-27T16:23:35.550Z,73.71
2023-02-27T16:26:37.437Z,72.58
2023-02-27T16:29:24.448Z,71.73
2023-02-27T16:31:55.924Z,71.59
2023-02-27T16:34:45.033Z,71.64
2023-02-27T16:37:21.105Z,71.92
2023-02-27T16:39:52.414Z,71.81
2023-02-27T16:42:22.089Z,71.97
2023-02-27T16:44:53.112Z,72.27
2023-02-27T16:47:23.433Z,72.78
2023-02-27T16:49:54.113Z,72.42
2023-02-27T16:52:23.465Z,72.17
2023-02-27T16:54:53.688Z,72.35
2023-02-27T16:57:28.081Z,72.36
2023-02-27T16:59:58.037Z,72.28
2023-02-27T17:02:27.326Z,72.67
2023-02-27T17:04:58.249Z,72.98
2023-02-27T17:07:27.989Z,73.22
2023-02-27T17:09:57.603Z,73.56
2023-02-27T17:12:27.587Z,73.90
2023-02-27T17:14:58.748Z,74.16
2023-02-27T17:17:28.965Z,74.24
2023-02-27T17:19:59.072Z,74.40
2023-02-27T17:22:29.834Z,74.67
2023-02-27T17:25:00.288Z,74.97
2023-02-27T17:27:30.464Z,75.32
2023-02-27T17:30:00.168Z,75.67
2023-02-27T17:32:30.099Z,75.99
2023-02-27T17:34:59.805Z,76.06
2023-02-27T17:37:30.440Z,76.26
2023-02-27T17:40:00.709Z,76.61
2023-02-27T17:42:36.905Z,76.67
2023-02-27T17:45:11.035Z,76.63
2023-02-27T17:47:47.511Z,77.08
2023-02-27T17:50:23.195Z,77.07
2023-02-27T17:52:55.672Z,77.33
2023-02-27T17:55:25.472Z,77.53
2023-02-27T17:57:55.903Z,77.88
2023-02-27T18:00:26.686Z,77.79
2023-02-27T18:02:57.601Z,77.85
2023-02-27T18:05:28.188Z,78.11
2023-02-27T18:07:58.454Z,78.50
2023-02-27T18:10:34.653Z,78.56
2023-02-27T18:13:06.769Z,78.73
2023-02-27T18:15:38.113Z,78.67
2023-02-27T18:18:08.305Z,78.92
2023-02-27T18:20:39.726Z,78.96
2023-02-27T18:23:10.725Z,79.31
2023-02-27T18:25:42.463Z,79.36
2023-02-27T18:28:13.751Z,79.14
2023-02-27T18:30:46.076Z,79.47
2023-02-27T18:33:16.425Z,79.60
2023-02-27T18:35:51.603Z,79.47
2023-02-27T18:38:26.203Z,80.18
2023-02-27T18:41:07.447Z,80.15
2023-02-27T18:43:40.206Z,80.39
2023-02-27T18:46:13.738Z,80.58
2023-02-27T18:48:46.624Z,81.19
2023-02-27T18:51:18.369Z,81.41
2023-02-27T18:53:53.571Z,81.13
2023-02-27T18:56:26.692Z,81.04
2023-02-27T18:59:03.609Z,81.11
2023-02-27T19:01:38.598Z,80.68
2023-02-27T19:04:12.481Z,80.36
2023-02-27T19:06:44.142Z,80.37
2023-02-27T19:09:20.419Z,80.38
2023-02-27T19:11:53.298Z,80.17
2023-02-27T19:14:29.290Z,79.69
2023-02-27T19:17:02.679Z,79.52
2023-02-27T19:19:33.845Z,79.55
2023-02-27T19:22:03.885Z,79.23
2023-02-27T19:24:35.478Z,79.11
2023-02-27T19:27:05.972Z,78.86
2023-02-27T19:29:43.557Z,78.92
2023-02-27T19:32:15.854Z,79.16
2023-02-27T19:34:46.212Z,79.26
2023-02-27T19:37:18.389Z,79.44
2023-02-27T19:39:49.272Z,79.42
2023-02-27T19:42:20.407Z,79.43
2023-02-27T19:44:51.092Z,79.56
2023-02-27T19:47:24.740Z,79.63
2023-02-27T19:49:55.464Z,79.48
2023-02-27T19:52:27.352Z,80.13
2023-02-27T19:54:58.155Z,80.19
2023-02-27T19:57:29.322Z,79.86
2023-02-27T20:00:00.993Z,80.13
2023-02-27T20:02:31.953Z,80.65
2023-02-27T20:05:04.203Z,80.57
2023-02-27T20:07:34.088Z,80.28
2023-02-27T20:10:06.641Z,80.51
2023-02-27T20:12:40.140Z,80.45
2023-02-27T20:15:12.556Z,80.72
2023-02-27T20:17:45.824Z,81.10
2023-02-27T20:20:16.359Z,80.95
2023-02-27T20:22:47.003Z,81.33
2023-02-27T20:25:18.987Z,81.54
2023-02-27T20:27:52.816Z,81.68
2023-02-27T20:30:27.745Z,81.41
2023-02-27T20:32:59.160Z,81.47
2023-02-27T20:35:29.988Z,82.01
2023-02-27T20:38:00.664Z,81.87
2023-02-27T20:40:34.452Z,82.25
2023-02-27T20:43:06.124Z,82.22
2023-02-27T20:45:42.051Z,82.57
2023-02-27T20:48:17.763Z,82.47
2023-02-27T20:50:50.298Z,82.70
2023-02-27T20:53:26.294Z,82.83
2023-02-27T20:55:57.067Z,83.36
2023-02-27T20:58:29.312Z,83.90
2023-02-27T21:01:00.372Z,84.21
2023-02-27T21:03:38.538Z,84.80
2023-02-27T21:06:11.272Z,85.43
2023-02-27T21:08:42.485Z,85.43
2023-02-27T21:11:14.724Z,85.26
2023-02-27T21:13:45.822Z,85.21
2023-02-27T21:16:20.985Z,85.38
2023-02-27T21:18:52.345Z,85.27
2023-02-27T21:21:24.364Z,85.45
2023-02-27T21:23:54.453Z,85.27
2023-02-27T21:26:35.356Z,85.52
2023-02-27T21:29:10.315Z,85.68
2023-02-27T21:31:41.278Z,85.74
2023-02-27T21:34:13.912Z,85.47
2023-02-27T21:36:44.212Z,85.65
2023-02-27T21:39:20.564Z,85.52
2023-02-27T21:41:50.190Z,85.58
2023-02-27T21:44:20.527Z,85.35
2023-02-27T21:46:49.381Z,85.51
2023-02-27T21:49:23.668Z,85.56
2023-02-27T21:51:53.160Z,84.90
2023-02-27T21:54:23.451Z,84.92
2023-02-27T21:56:52.409Z,85.55
2023-02-27T21:59:22.057Z,85.89
2023-02-27T22:01:50.979Z,86.30
2023-02-27T22:04:21.250Z,85.91
2023-02-27T22:06:51.202Z,85.62
2023-02-27T22:09:21.803Z,85.61
2023-02-27T22:11:50.683Z,86.03
2023-02-27T22:14:19.261Z,86.13
2023-02-27T22:16:48.069Z,85.66
2023-02-27T22:19:22.468Z,85.30
2023-02-27T22:21:51.170Z,85.44
2023-02-27T22:24:20.851Z,85.19
2023-02-27T22:26:50.692Z,84.86
2023-02-27T22:29:19.789Z,84.71
2023-02-27T22:31:48.512Z,84.67
2023-02-27T22:34:18.970Z,84.58
2023-02-27T22:36:49.125Z,84.40
2023-02-27T22:39:17.786Z,84.11
2023-02-27T22:41:46.674Z,83.72
2023-02-27T22:44:16.805Z,83.69
2023-02-27T22:46:48.312Z,83.86
2023-02-27T22:49:20.325Z,83.96
2023-02-27T22:51:51.270Z,84.11
2023-02-27T22:54:23.198Z,84.00
2023-02-27T22:56:53.282Z,84.04
2023-02-27T22:59:22.118Z,83.34
2023-02-27T23:01:51.816Z,83.53
2023-02-27T23:04:22.541Z,83.51
2023-02-27T23:06:52.842Z,83.44
2023-02-27T23:09:24.819Z,83.76
2023-02-27T23:11:54.554Z,83.52
2023-02-27T23:14:24.479Z,83.46
2023-02-27T23:16:53.362Z,83.47
2023-02-27T23:19:22.650Z,83.22
2023-02-27T23:21:51.237Z,83.04
2023-02-27T23:24:20.531Z,82.97
2023-02-27T23:26:51.197Z,83.19
2023-02-27T23:29:20.314Z,83.12
2023-02-27T23:31:49.184Z,83.06
2023-02-27T23:34:17.981Z,82.95
2023-02-27T23:36:46.842Z,82.74
2023-02-27T23:39:16.543Z,83.00
2023-02-27T23:41:45.140Z,82.80
2023-02-27T23:44:33.060Z,82.75
2023-02-27T23:47:01.851Z,82.39
2023-02-27T23:49:30.637Z,81.49
2023-02-27T23:51:59.446Z,81.40
2023-02-27T23:54:28.111Z,80.83
2023-02-27T23:56:56.906Z,80.72
2023-02-27T23:59:28.467Z,80.30
